Time;durP1;ratioP1;P1;durP2;ratioP2;P2;SDS_P1;SDS_P2;PMS_P1;PMS_P2;Temp;Humidity;BMP_temperature;BMP_pressure;BME280_temperature;BME280_humidity;BME280_pressure;Samples;Min_cycle;Max_cycle;Signal;HPM_P1;HPM_P2
2023/06/23 00:00:20;;;;;;;0.10;0.10;;;;;;;19.13;69.38;102049.13;5049881;28;20035;-77
2023/06/23 00:02:46;;;;;;;0.15;0.15;;;;;;;19.11;69.60;102050.13;5052135;28;20032;-78
2023/06/23 00:05:13;;;;;;;0.80;0.43;;;;;;;19.08;69.72;102041.22;5053148;28;20044;-76
2023/06/23 00:07:39;;;;;;;0.20;0.20;;;;;;;19.08;69.90;102033.16;5046088;28;20040;-75
2023/06/23 00:10:06;;;;;;;0.95;0.90;;;;;;;19.01;70.95;102037.00;5057158;28;20044;-76
2023/06/23 00:12:35;;;;;;;2.55;0.75;;;;;;;19.00;70.60;102037.06;5056075;28;20029;-78
2023/06/23 00:15:02;;;;;;;0.43;0.43;;;;;;;19.03;70.47;102036.97;5062924;28;20081;-78
2023/06/23 00:17:29;;;;;;;0.57;0.57;;;;;;;19.03;70.27;102032.47;5056639;28;20083;-78
2023/06/23 00:19:55;;;;;;;0.70;0.43;;;;;;;19.02;70.59;102025.34;5054223;28;20028;-77
2023/06/23 00:22:22;;;;;;;0.10;0.10;;;;;;;19.04;69.84;102026.16;5054292;28;20483;-78
2023/06/23 00:24:48;;;;;;;0.13;0.13;;;;;;;18.99;70.84;102029.94;5057184;28;20025;-75
2023/06/23 00:27:14;;;;;;;1.08;1.08;;;;;;;18.97;70.52;102032.69;5055651;28;20033;-78
2023/06/23 00:29:40;;;;;;;0.40;0.40;;;;;;;18.96;70.86;102036.31;5057315;28;20033;-78
2023/06/23 00:32:07;;;;;;;0.10;0.10;;;;;;;18.96;70.97;102038.13;5059093;28;20111;-78
2023/06/23 00:34:33;;;;;;;1.17;0.95;;;;;;;18.89;71.36;102034.72;5055017;28;20029;-76
2023/06/23 00:36:59;;;;;;;0.57;0.57;;;;;;;18.97;70.72;102043.44;5053720;28;20490;-79
2023/06/23 00:39:25;;;;;;;0.20;0.20;;;;;;;18.93;71.38;102047.16;5055952;28;20123;-78
2023/06/23 00:41:51;;;;;;;0.10;0.10;;;;;;;18.96;71.15;102051.56;5050665;28;20459;-78
2023/06/23 00:44:18;;;;;;;0.38;0.38;;;;;;;18.94;71.33;102054.31;5052868;28;20041;-77
2023/06/23 00:46:44;;;;;;;0.45;0.45;;;;;;;18.94;71.23;102058.78;5051993;28;20061;-78
2023/06/23 00:49:13;;;;;;;0.20;0.20;;;;;;;18.90;71.48;102061.59;5046035;28;20084;-78
2023/06/23 00:51:39;;;;;;;0.55;0.55;;;;;;;18.90;71.64;102068.72;5052755;28;20037;-78
2023/06/23 00:54:06;;;;;;;0.50;0.50;;;;;;;18.89;71.51;102073.22;5053274;28;20042;-79
2023/06/23 00:56:34;;;;;;;0.20;0.20;;;;;;;18.90;71.22;102079.47;5054567;28;20033;-78
2023/06/23 00:59:02;;;;;;;0.10;0.10;;;;;;;18.89;71.21;102077.69;5054522;28;20033;-78
2023/06/23 01:01:31;;;;;;;0.20;0.20;;;;;;;18.88;71.46;102081.34;5051817;28;20029;-79
2023/06/23 01:03:59;;;;;;;0.73;0.73;;;;;;;18.87;71.68;102079.59;5052323;28;20036;-78
2023/06/23 01:09:12;;;;;;;1.35;1.27;;;;;;;18.87;71.60;102084.94;5051139;28;20786;-79
2023/06/23 01:11:51;;;;;;;0.57;0.30;;;;;;;18.86;71.85;102089.44;5040485;28;20064;-78
2023/06/23 01:14:27;;;;;;;0.40;0.40;;;;;;;18.85;71.75;102087.66;5041229;28;20083;-78
2023/06/23 01:17:19;;;;;;;0.20;0.20;;;;;;;18.90;71.55;102095.56;5033895;28;20036;-77
2023/06/23 01:23:06;;;;;;;0.70;0.70;;;;;;;18.84;72.00;102093.09;5051903;28;20139;-78
2023/06/23 01:26:01;;;;;;;0.80;0.32;;;;;;;18.86;71.98;102094.78;5045221;28;20068;-78
2023/06/23 01:28:49;;;;;;;0.20;0.20;;;;;;;18.88;71.93;102100.13;5046249;28;20148;-75
2023/06/23 01:31:31;;;;;;;0.10;0.10;;;;;;;18.84;71.69;102104.72;5039812;28;20031;-77
2023/06/23 01:34:01;;;;;;;0.10;0.10;;;;;;;18.81;71.80;102107.50;5043674;28;20033;-77
2023/06/23 01:39:15;;;;;;;0.50;0.40;;;;;;;18.78;71.64;102118.38;5107692;27;20397;-78
2023/06/23 01:42:02;;;;;;;0.10;0.10;;;;;;;18.77;71.81;102111.25;5084813;28;20081;-77
2023/06/23 01:44:30;;;;;;;0.13;0.13;;;;;;;18.74;71.49;102119.38;5082208;28;20034;-78
2023/06/23 01:47:01;;;;;;;0.38;0.38;;;;;;;18.75;71.50;102121.16;5079828;28;20077;-77
2023/06/23 01:49:31;;;;;;;0.00;0.00;;;;;;;18.76;71.74;102128.28;5083406;28;20024;-79
2023/06/23 01:52:00;;;;;;;0.38;0.38;;;;;;;18.74;72.07;102127.44;5085134;28;20031;-78
2023/06/23 01:54:28;;;;;;;0.10;0.10;;;;;;;18.73;72.00;102126.56;5085396;28;20505;-78
2023/06/23 01:56:56;;;;;;;0.00;0.00;;;;;;;18.74;72.19;102130.13;5086520;28;20048;-78
2023/06/23 01:59:23;;;;;;;0.43;0.43;;;;;;;18.73;71.92;102131.94;5085580;28;20107;-78
2023/06/23 02:01:51;;;;;;;0.10;0.10;;;;;;;18.72;71.92;102143.59;5085416;28;20158;-78
2023/06/23 02:04:18;;;;;;;0.30;0.30;;;;;;;18.71;71.99;102149.03;5084488;28;20036;-77
2023/06/23 02:06:48;;;;;;;0.25;0.25;;;;;;;18.70;72.12;102150.81;5086767;28;20036;-78
2023/06/23 02:09:18;;;;;;;0.20;0.20;;;;;;;18.68;72.34;102143.75;5086051;28;20052;-78
2023/06/23 02:11:46;;;;;;;0.10;0.10;;;;;;;18.67;72.36;102150.94;5083778;28;20036;-78
2023/06/23 02:14:14;;;;;;;0.10;0.10;;;;;;;18.64;72.41;102153.75;5085201;28;20439;-79
2023/06/23 02:16:42;;;;;;;0.22;0.22;;;;;;;18.62;73.02;102154.69;5084713;28;20243;-77
2023/06/23 02:19:09;;;;;;;1.05;1.05;;;;;;;18.63;73.03;102159.13;5087991;28;20067;-78
2023/06/23 02:21:36;;;;;;;0.70;0.70;;;;;;;18.62;72.61;102157.38;5084978;28;20819;-78
2023/06/23 02:24:06;;;;;;;0.38;0.38;;;;;;;18.59;73.08;102153.88;5084653;28;20552;-79
2023/06/23 02:26:35;;;;;;;1.55;1.13;;;;;;;18.61;73.14;102158.31;5090150;28;20025;-77
2023/06/23 02:29:04;;;;;;;0.43;0.43;;;;;;;18.58;72.79;102159.31;5090773;28;20016;-77
2023/06/23 02:31:30;;;;;;;0.20;0.20;;;;;;;18.55;73.53;102154.88;5089101;28;20024;-78
2023/06/23 02:33:57;;;;;;;0.20;0.20;;;;;;;18.55;73.69;102171.00;5085560;28;20102;-78
2023/06/23 02:36:27;;;;;;;0.57;0.57;;;;;;;18.51;74.52;102171.16;5084501;28;20099;-78
2023/06/23 02:38:55;;;;;;;0.93;0.93;;;;;;;18.51;75.17;102174.72;5078713;28;20521;-77
2023/06/23 02:41:26;;;;;;;0.30;0.30;;;;;;;18.54;75.23;102179.09;5086976;28;20029;-77
2023/06/23 02:43:57;;;;;;;0.55;0.55;;;;;;;18.56;74.82;102182.63;5086253;28;20020;-78
2023/06/23 02:46:29;;;;;;;1.33;1.30;;;;;;;18.59;74.90;102182.50;5084037;28;20032;-78
2023/06/23 02:49:04;;;;;;;0.10;0.10;;;;;;;18.61;74.77;102186.03;5079926;28;20016;-78
2023/06/23 02:51:34;;;;;;;0.30;0.30;;;;;;;18.62;74.82;102193.16;5068741;28;20033;-78
2023/06/23 02:54:05;;;;;;;8.68;1.45;;;;;;;18.65;74.97;102193.06;5078357;28;20024;-77
2023/06/23 02:56:36;;;;;;;0.20;0.20;;;;;;;18.64;75.03;102191.31;5072190;28;20052;-77
2023/06/23 02:59:06;;;;;;;0.43;0.43;;;;;;;18.69;74.65;102193.84;5078279;28;20028;-79
2023/06/23 03:01:39;;;;;;;0.20;0.20;;;;;;;18.69;74.36;102194.72;5080420;28;20124;-79
2023/06/23 03:04:05;;;;;;;0.40;0.40;;;;;;;18.65;75.29;102193.06;5078269;28;20075;-79
2023/06/23 03:06:35;;;;;;;0.57;0.57;;;;;;;18.70;74.47;102196.47;5073700;28;20049;-79
2023/06/23 03:09:03;;;;;;;0.60;0.60;;;;;;;18.68;75.37;102203.72;5082122;28;20037;-79
2023/06/23 03:11:30;;;;;;;0.47;0.47;;;;;;;18.66;75.55;102194.81;5081177;28;20037;-77
2023/06/23 03:13:57;;;;;;;0.47;0.47;;;;;;;18.71;74.81;102208.97;5071397;28;20032;-77
2023/06/23 03:16:48;;;;;;;0.20;0.20;;;;;;;18.73;74.74;102207.13;5070197;28;20033;-77
2023/06/23 03:22:32;;;;;;;0.22;0.22;;;;;;;18.72;75.24;102205.34;5070543;28;20377;-78
2023/06/23 03:25:03;;;;;;;0.45;0.45;;;;;;;18.70;74.73;102206.34;5072588;28;20036;-78
2023/06/23 03:27:32;;;;;;;0.20;0.20;;;;;;;18.69;75.04;102209.94;5067958;28;20478;-78
2023/06/23 03:30:04;;;;;;;0.40;0.40;;;;;;;18.69;74.68;102205.47;5062992;28;20045;-77
2023/06/23 03:32:35;;;;;;;1.33;1.33;;;;;;;18.69;75.31;102205.47;5060703;28;20033;-78
2023/06/23 03:35:06;;;;;;;0.17;0.17;;;;;;;18.69;75.14;102210.84;5059984;28;20037;-78
2023/06/23 03:37:37;;;;;;;1.48;1.38;;;;;;;18.69;74.79;102213.53;5058998;28;20025;-77
2023/06/23 03:40:09;;;;;;;0.10;0.10;;;;;;;18.70;74.63;102207.19;5066191;28;20035;-77
2023/06/23 03:42:39;;;;;;;;;;;;;;;18.78;74.79;102219.50;5064341;28;20024;-78
2023/06/23 03:45:08;;;;;;;1.17;1.08;;;;;;;18.66;75.32;102227.03;5064659;28;20292;-77
2023/06/23 03:47:36;;;;;;;1.00;0.90;;;;;;;18.59;76.10;102230.81;5062457;28;20099;-77
2023/06/23 03:50:10;;;;;;;2.38;2.28;;;;;;;18.62;76.15;102237.91;5069339;28;20092;-78
2023/06/23 03:52:39;;;;;;;0.80;0.73;;;;;;;18.63;75.51;102235.19;5070377;28;20033;-79
2023/06/23 03:55:09;;;;;;;0.30;0.30;;;;;;;18.60;76.01;102232.59;5066705;28;20029;-78
2023/06/23 03:57:37;;;;;;;1.27;1.27;;;;;;;18.56;76.71;102233.63;5069902;28;20086;-77
2023/06/23 04:00:05;;;;;;;1.05;1.05;;;;;;;18.61;76.12;102228.97;5060583;28;20502;-77
2023/06/23 04:02:34;;;;;;;0.10;0.10;;;;;;;18.63;76.20;102232.50;5063810;28;20556;-78
2023/06/23 04:05:03;;;;;;;0.52;0.52;;;;;;;18.65;75.72;102236.00;5056337;28;20056;-77
2023/06/23 04:07:30;;;;;;;1.08;1.08;;;;;;;18.70;75.27;102244.78;5049500;28;20032;-76
2023/06/23 04:10:00;;;;;;;0.20;0.20;;;;;;;18.74;75.49;102246.47;5057867;28;20494;-78
2023/06/23 04:12:27;;;;;;;0.30;0.30;;;;;;;18.78;75.46;102240.97;5050981;28;20033;-78
2023/06/23 04:14:55;;;;;;;0.38;0.38;;;;;;;18.82;75.17;102243.53;5051500;28;20021;-77
2023/06/23 04:17:25;;;;;;;0.30;0.30;;;;;;;18.84;75.99;102243.47;5065797;28;20036;-78
2023/06/23 04:19:56;;;;;;;2.17;2.08;;;;;;;18.89;75.95;102246.88;5071115;28;20554;-78
2023/06/23 04:22:23;;;;;;;1.52;1.20;;;;;;;18.85;76.36;102243.41;5060970;28;20502;-77
2023/06/23 04:24:52;;;;;;;3.83;0.85;;;;;;;18.91;76.43;102242.38;5060158;28;20025;-77
2023/06/23 04:27:20;;;;;;;0.45;0.45;;;;;;;18.96;76.04;102251.16;5060145;28;20022;-77
2023/06/23 04:29:48;;;;;;;0.40;0.40;;;;;;;19.00;75.74;102250.13;5063334;28;20025;-78
2023/06/23 04:32:16;;;;;;;1.27;1.23;;;;;;;19.00;75.93;102252.81;5044021;28;20040;-77
2023/06/23 04:34:43;;;;;;;0.55;0.55;;;;;;;19.04;75.77;102258.97;5044337;28;20029;-77
2023/06/23 04:37:33;;;;;;;0.30;0.30;;;;;;;19.10;75.30;102263.25;5034703;28;20548;-77
2023/06/23 04:40:11;;;;;;;2.50;1.52;;;;;;;19.12;75.51;102262.28;5035974;28;20059;-77
2023/06/23 04:42:46;;;;;;;1.58;1.00;;;;;;;19.11;75.71;102259.66;5038814;28;20033;-76
2023/06/23 04:45:17;;;;;;;0.88;0.88;;;;;;;19.13;75.47;102268.53;5049770;28;20411;-77
2023/06/23 04:47:48;;;;;;;0.40;0.40;;;;;;;19.12;76.10;102272.16;5050362;28;20032;-76
2023/06/23 04:50:15;;;;;;;1.23;1.13;;;;;;;19.13;75.55;102274.78;5041163;28;20060;-76
2023/06/23 04:52:49;;;;;;;1.48;0.82;;;;;;;19.09;76.37;102281.19;5048367;28;20033;-77
2023/06/23 04:55:18;;;;;;;1.63;0.55;;;;;;;19.13;75.75;102272.09;5052317;28;20032;-77
2023/06/23 04:57:46;;;;;;;0.70;0.70;;;;;;;19.13;76.23;102277.47;5049503;28;20029;-77
2023/06/23 05:00:16;;;;;;;0.52;0.52;;;;;;;19.19;75.76;102276.38;5043001;28;20380;-76
2023/06/23 05:02:45;;;;;;;0.70;0.70;;;;;;;19.17;76.46;102276.44;5047631;28;20037;-77
2023/06/23 05:05:18;;;;;;;0.35;0.35;;;;;;;19.25;75.72;102268.09;5051003;28;20120;-76
2023/06/23 05:07:46;;;;;;;1.00;0.88;;;;;;;19.28;75.75;102270.72;5043236;28;20029;-78
2023/06/23 05:10:13;;;;;;;1.02;1.02;;;;;;;19.28;76.17;102272.50;5043167;28;20055;-77
2023/06/23 05:12:42;;;;;;;0.43;0.43;;;;;;;19.31;76.21;102272.41;5041592;28;20053;-77
2023/06/23 05:15:10;;;;;;;0.22;0.22;;;;;;;19.35;76.27;102284.81;5040624;28;20046;-78
2023/06/23 05:17:38;;;;;;;0.57;0.57;;;;;;;19.39;75.90;102291.84;5035727;28;20065;-77
2023/06/23 05:20:08;;;;;;;3.55;1.98;;;;;;;19.45;75.67;102294.34;5046397;28;20030;-77
2023/06/23 05:22:37;;;;;;;0.10;0.10;;;;;;;19.50;75.83;102302.22;5032464;28;20061;-76
2023/06/23 05:25:06;;;;;;;3.58;1.85;;;;;;;19.52;75.77;102303.91;5038753;28;20033;-77
2023/06/23 05:27:35;;;;;;;2.75;2.55;;;;;;;19.58;75.66;102304.63;5037704;28;20091;-77
2023/06/23 05:30:03;;;;;;;0.52;0.52;;;;;;;19.58;75.91;102304.63;5038183;28;20797;-78
2023/06/23 05:32:34;;;;;;;3.30;1.25;;;;;;;19.67;75.82;102307.00;5042898;28;20414;-78
2023/06/23 05:35:03;;;;;;;3.47;1.65;;;;;;;19.68;75.78;102306.94;5049102;28;20092;-78
2023/06/23 05:37:33;;;;;;;3.20;1.05;;;;;;;19.70;75.55;102315.84;5049473;28;20068;-78
2023/06/23 05:40:03;;;;;;;0.20;0.20;;;;;;;19.66;75.87;102319.56;5049123;28;20057;-77
2023/06/23 05:42:32;;;;;;;0.28;0.28;;;;;;;19.70;75.71;102314.97;5048080;28;20056;-78
2023/06/23 05:45:02;;;;;;;0.73;0.73;;;;;;;19.79;75.28;102319.13;5050534;28;20033;-77
2023/06/23 05:47:51;;;;;;;0.43;0.43;;;;;;;19.73;75.70;102322.94;5035769;28;20028;-76
2023/06/23 05:50:30;;;;;;;1.10;1.10;;;;;;;19.80;75.26;102326.28;5031738;28;20018;-76
2023/06/23 05:53:02;;;;;;;0.30;0.30;;;;;;;19.82;75.25;102338.72;5040221;28;20426;-79
2023/06/23 05:55:30;;;;;;;0.70;0.70;;;;;;;19.93;75.01;102333.00;5040026;28;20024;-76
2023/06/23 05:58:01;;;;;;;0.95;0.95;;;;;;;19.95;74.78;102339.22;5045433;28;20028;-76
2023/06/23 06:00:33;;;;;;;0.63;0.63;;;;;;;20.04;74.62;102338.03;5041754;28;20022;-75
2023/06/23 06:03:03;;;;;;;1.13;1.13;;;;;;;20.08;74.50;102341.47;5035856;28;20033;-75
2023/06/23 06:05:32;;;;;;;0.30;0.30;;;;;;;20.11;74.27;102336.88;5038839;28;20124;-75
2023/06/23 06:08:00;;;;;;;3.70;1.75;;;;;;;20.11;74.23;102346.72;5034987;28;20037;-75
2023/06/23 06:10:28;;;;;;;0.82;0.82;;;;;;;20.14;74.04;102347.50;5034558;28;20041;-75
2023/06/23 06:12:55;;;;;;;0.10;0.10;;;;;;;20.19;73.94;102344.66;5042631;28;20057;-76
2023/06/23 06:15:22;;;;;;;0.10;0.10;;;;;;;20.24;73.98;102350.75;5044724;28;20037;-75
2023/06/23 06:17:49;;;;;;;0.93;0.90;;;;;;;20.29;73.90;102354.13;5050726;28;20028;-76
2023/06/23 06:20:17;;;;;;;1.23;1.23;;;;;;;20.34;73.92;102352.16;5047458;28;20025;-75
2023/06/23 06:22:45;;;;;;;0.28;0.28;;;;;;;20.36;73.70;102349.38;5051112;28;20512;-76
2023/06/23 06:25:14;;;;;;;0.40;0.40;;;;;;;20.42;73.56;102345.59;5051086;28;20033;-75
2023/06/23 06:27:43;;;;;;;0.40;0.40;;;;;;;20.43;72.99;102356.31;5050366;28;20100;-77
2023/06/23 06:30:10;;;;;;;0.43;0.43;;;;;;;20.44;72.46;102355.38;5048180;28;20457;-77
2023/06/23 06:32:39;;;;;;;0.60;0.60;;;;;;;20.42;72.38;102359.06;5048312;28;20033;-77
2023/06/23 06:35:09;;;;;;;0.32;0.32;;;;;;;20.45;72.27;102358.94;5044533;28;20033;-77
2023/06/23 06:37:38;;;;;;;1.48;0.75;;;;;;;20.51;72.38;102359.59;5051554;28;20033;-77
2023/06/23 06:40:07;;;;;;;0.47;0.47;;;;;;;20.59;71.85;102361.13;5047246;28;20029;-76
2023/06/23 06:42:34;;;;;;;0.17;0.17;;;;;;;20.62;71.38;102359.19;5047777;28;20028;-78
2023/06/23 06:45:00;;;;;;;1.10;1.00;;;;;;;20.62;70.82;102367.28;5044568;28;20071;-78
2023/06/23 06:47:29;;;;;;;0.20;0.20;;;;;;;20.72;70.67;102372.34;5036577;28;20028;-78
2023/06/23 06:49:58;;;;;;;0.08;0.08;;;;;;;20.77;70.44;102371.22;5051919;28;20025;-78
2023/06/23 06:52:27;;;;;;;0.63;0.63;;;;;;;20.87;70.98;102376.25;5042930;28;20192;-78
2023/06/23 06:54:53;;;;;;;0.20;0.20;;;;;;;20.83;69.71;102380.88;5033004;28;20022;-78
2023/06/23 06:57:20;;;;;;;0.20;0.20;;;;;;;20.84;69.09;102385.31;5037368;28;20040;-78
2023/06/23 06:59:47;;;;;;;0.10;0.10;;;;;;;20.81;68.88;102388.13;5033829;28;20022;-77
2023/06/23 07:02:14;;;;;;;1.08;1.08;;;;;;;20.90;69.09;102381.50;5037289;28;20540;-78
2023/06/23 07:04:40;;;;;;;0.50;0.50;;;;;;;20.91;68.16;102385.94;5032552;28;20434;-78
2023/06/23 07:07:06;;;;;;;0.60;0.60;;;;;;;20.95;68.77;102377.69;5045990;28;20058;-78
2023/06/23 07:09:32;;;;;;;0.10;0.10;;;;;;;21.04;68.63;102380.97;5038588;28;20029;-78
2023/06/23 07:11:59;;;;;;;0.85;0.85;;;;;;;21.12;68.88;102373.44;5036649;28;20371;-77
2023/06/23 07:14:25;;;;;;;0.30;0.30;;;;;;;21.11;67.57;102375.28;5042224;28;20052;-77
2023/06/23 07:16:51;;;;;;;0.10;0.10;;;;;;;21.09;66.23;102390.63;5044902;28;20025;-78
2023/06/23 07:19:17;;;;;;;0.20;0.20;;;;;;;21.18;67.00;102392.06;5047402;28;20033;-78
2023/06/23 07:21:43;;;;;;;0.10;0.10;;;;;;;21.24;67.52;102389.13;5042376;28;20025;-78
2023/06/23 07:24:09;;;;;;;0.10;0.10;;;;;;;21.31;67.37;102387.94;5039739;28;20063;-79
2023/06/23 07:26:37;;;;;;;0.10;0.10;;;;;;;21.38;67.50;102390.38;5044415;28;20044;-79
2023/06/23 07:29:03;;;;;;;0.10;0.10;;;;;;;21.48;67.57;102383.66;5044068;28;20031;-78
2023/06/23 07:31:30;;;;;;;0.10;0.10;;;;;;;21.55;67.33;102395.09;5035441;28;20026;-77
2023/06/23 07:33:56;;;;;;;0.17;0.17;;;;;;;21.59;66.37;102394.03;5039822;28;20025;-77
2023/06/23 07:36:23;;;;;;;0.10;0.10;;;;;;;21.69;66.12;102391.84;5031672;28;20029;-77
2023/06/23 07:38:49;;;;;;;0.22;0.22;;;;;;;21.76;66.50;102399.59;5040368;28;20124;-77
2023/06/23 07:41:15;;;;;;;0.10;0.10;;;;;;;21.81;66.16;102404.81;5037673;28;20418;-79
2023/06/23 07:43:43;;;;;;;0.25;0.25;;;;;;;21.93;66.05;102395.28;5040259;28;20222;-77
2023/06/23 07:46:10;;;;;;;0.30;0.30;;;;;;;22.00;65.07;102401.31;5030109;28;20091;-77
2023/06/23 07:48:36;;;;;;;0.30;0.30;;;;;;;22.02;64.29;102399.41;5036695;28;20033;-77
2023/06/23 07:51:02;;;;;;;2.10;1.17;;;;;;;22.08;64.52;102404.53;5033025;28;20743;-78
2023/06/23 07:53:28;;;;;;;1.25;1.25;;;;;;;22.13;63.80;102403.41;5035280;28;20025;-78
2023/06/23 07:55:55;;;;;;;0.20;0.20;;;;;;;22.24;64.73;102411.03;5032254;28;20038;-76
2023/06/23 07:58:21;;;;;;;0.90;0.90;;;;;;;22.24;62.46;102410.16;5029941;28;20057;-76
2023/06/23 08:00:47;;;;;;;0.15;0.15;;;;;;;22.35;62.47;102406.97;5042969;28;20025;-76
2023/06/23 08:03:13;;;;;;;0.10;0.10;;;;;;;22.44;63.28;102407.47;5050327;28;20111;-75
2023/06/23 08:05:39;;;;;;;0.73;0.50;;;;;;;22.57;64.20;102406.91;5050532;28;20078;-76
2023/06/23 08:08:06;;;;;;;0.57;0.57;;;;;;;22.62;62.31;102404.88;5052337;28;20025;-76
2023/06/23 08:10:32;;;;;;;0.30;0.30;;;;;;;22.67;60.60;102410.94;5046219;28;20049;-75
2023/06/23 08:12:58;;;;;;;0.15;0.15;;;;;;;22.69;59.94;102403.66;5053733;28;20041;-75
2023/06/23 08:15:24;;;;;;;0.82;0.82;;;;;;;22.74;58.64;102411.50;5051119;28;20057;-76
2023/06/23 08:17:51;;;;;;;0.10;0.10;;;;;;;22.84;60.50;102409.25;5045213;28;20063;-76
2023/06/23 08:20:17;;;;;;;0.10;0.10;;;;;;;22.89;60.13;102410.81;5053922;28;20025;-75
2023/06/23 08:22:43;;;;;;;1.17;0.55;;;;;;;22.95;58.91;102404.22;5053673;28;20033;-76
2023/06/23 08:25:09;;;;;;;0.13;0.13;;;;;;;23.02;60.14;102411.09;5053403;28;20037;-76
2023/06/23 08:27:35;;;;;;;0.65;0.65;;;;;;;23.09;59.45;102417.06;5052953;28;20036;-76
2023/06/23 08:30:02;;;;;;;0.40;0.40;;;;;;;23.18;59.27;102413.97;5045302;28;20049;-76
2023/06/23 08:32:28;;;;;;;0.10;0.10;;;;;;;23.17;57.71;102417.63;5053420;28;20025;-76
2023/06/23 08:34:54;;;;;;;0.10;0.10;;;;;;;23.23;58.43;102425.44;5053176;28;20032;-76
2023/06/23 08:37:20;;;;;;;0.40;0.40;;;;;;;23.32;59.47;102425.94;5055725;28;20121;-76
2023/06/23 08:39:46;;;;;;;0.45;0.45;;;;;;;23.36;59.03;102430.25;5048213;28;20506;-77
2023/06/23 08:42:14;;;;;;;0.00;0.00;;;;;;;23.40;57.68;102429.13;5053442;28;20040;-75
2023/06/23 08:44:43;;;;;;;2.83;0.55;;;;;;;23.52;58.23;102433.06;5046840;28;20033;-76
2023/06/23 08:47:14;;;;;;;0.32;0.32;;;;;;;23.53;57.74;102432.13;5049501;28;20116;-76
2023/06/23 08:49:42;;;;;;;0.10;0.10;;;;;;;23.53;56.96;102433.00;5053131;28;20564;-76
2023/06/23 08:52:11;;;;;;;0.20;0.20;;;;;;;23.53;57.38;102433.00;5050404;28;20268;-76
2023/06/23 08:54:37;;;;;;;0.20;0.20;;;;;;;23.57;56.12;102431.00;5034995;28;20025;-76
2023/06/23 08:57:04;;;;;;;0.38;0.38;;;;;;;23.59;55.85;102437.22;5032569;28;20065;-76
2023/06/23 08:59:30;;;;;;;0.75;0.75;;;;;;;23.63;54.95;102436.13;5032857;28;20025;-76
2023/06/23 09:01:57;;;;;;;2.30;0.52;;;;;;;23.70;55.11;102442.97;5032856;28;20025;-76
2023/06/23 09:04:23;;;;;;;0.45;0.45;;;;;;;23.80;54.58;102443.41;5033553;28;20525;-77
2023/06/23 09:06:49;;;;;;;1.10;0.68;;;;;;;23.94;56.60;102440.00;5032188;28;20375;-76
2023/06/23 09:09:16;;;;;;;0.60;0.60;;;;;;;24.02;53.54;102448.59;5033341;28;20036;-76
2023/06/23 09:11:43;;;;;;;0.10;0.10;;;;;;;24.05;50.82;102452.97;5041987;28;20031;-76
2023/06/23 09:14:10;;;;;;;0.20;0.20;;;;;;;24.17;53.12;102449.63;5033662;28;20068;-75
2023/06/23 09:16:37;;;;;;;0.20;0.20;;;;;;;24.19;50.73;102460.41;5035398;28;20029;-74
2023/06/23 09:19:04;;;;;;;0.10;0.10;;;;;;;24.26;51.97;102452.81;5050996;28;20405;-76
2023/06/23 09:21:32;;;;;;;0.30;0.30;;;;;;;24.36;54.03;102457.69;5041675;28;20029;-76
2023/06/23 09:24:04;;;;;;;1.17;0.90;;;;;;;24.42;53.63;102451.03;5041287;28;20087;-76
2023/06/23 09:26:48;;;;;;;0.20;0.20;;;;;;;24.59;53.58;102457.41;5047476;28;20036;-77
2023/06/23 09:29:19;;;;;;;0.10;0.10;;;;;;;24.60;51.65;102451.00;5047294;28;20507;-75
2023/06/23 09:31:48;;;;;;;0.17;0.17;;;;;;;24.74;53.20;102453.88;5052404;28;20403;-76
2023/06/23 09:34:33;;;;;;;0.20;0.20;;;;;;;24.87;51.45;102459.50;5054277;28;20025;-76
2023/06/23 09:37:16;;;;;;;0.20;0.20;;;;;;;24.91;51.65;102461.09;5050798;28;20126;-78
2023/06/23 09:39:48;;;;;;;0.13;0.13;;;;;;;24.94;52.32;102455.50;5055972;28;20056;-77
2023/06/23 09:42:15;;;;;;;0.30;0.30;;;;;;;24.99;50.81;102460.69;5058692;28;20016;-78
2023/06/23 09:44:45;;;;;;;0.30;0.30;;;;;;;25.04;49.54;102456.72;5049192;28;20636;-77
2023/06/23 09:47:15;;;;;;;0.30;0.30;;;;;;;25.15;51.40;102453.41;5057261;28;20028;-78
2023/06/23 09:49:44;;;;;;;0.10;0.10;;;;;;;25.17;47.93;102447.91;5045327;28;20029;-78
2023/06/23 09:52:14;;;;;;;0.10;0.10;;;;;;;25.25;48.61;102461.06;5052921;28;20110;-78
2023/06/23 09:54:41;;;;;;;0.10;0.10;;;;;;;25.35;47.83;102460.41;5055501;28;20032;-78
2023/06/23 09:57:12;;;;;;;0.10;0.10;;;;;;;25.36;45.96;102458.59;5063102;28;20135;-78
2023/06/23 09:59:40;;;;;;;0.17;0.17;;;;;;;25.49;48.91;102461.50;5058663;28;20112;-78
2023/06/23 10:02:08;;;;;;;0.10;0.10;;;;;;;25.53;48.19;102463.06;5049630;28;20055;-78
2023/06/23 10:04:35;;;;;;;0.43;0.43;;;;;;;25.59;47.00;102470.00;5057717;28;20037;-77
2023/06/23 10:07:19;;;;;;;0.10;0.10;;;;;;;25.72;46.70;102471.03;5060365;28;20032;-77
2023/06/23 10:09:50;;;;;;;0.80;0.80;;;;;;;25.76;46.27;102461.72;5060214;28;20033;-78
2023/06/23 10:12:21;;;;;;;0.30;0.30;;;;;;;25.79;44.99;102460.66;5055580;28;20028;-79
2023/06/23 10:14:49;;;;;;;0.00;0.00;;;;;;;25.91;44.26;102464.50;5060452;28;20039;-78
2023/06/23 10:17:16;;;;;;;0.10;0.10;;;;;;;25.92;43.12;102458.97;5062630;28;20028;-79
2023/06/23 10:19:45;;;;;;;0.13;0.13;;;;;;;25.96;42.25;102462.38;5065099;28;20029;-79
2023/06/23 10:22:15;;;;;;;0.55;0.55;;;;;;;26.05;43.43;102461.81;5063268;28;20028;-79
2023/06/23 10:24:44;;;;;;;0.10;0.10;;;;;;;26.17;44.64;102465.69;5062516;28;20033;-79
2023/06/23 10:27:14;;;;;;;0.65;0.50;;;;;;;26.23;43.89;102465.31;5048152;28;20033;-77
2023/06/23 10:29:47;;;;;;;0.10;0.10;;;;;;;26.33;44.14;102460.16;5046180;28;20041;-77
2023/06/23 10:32:15;;;;;;;0.55;0.55;;;;;;;26.37;42.41;102459.03;5052681;28;20025;-79
2023/06/23 10:34:44;;;;;;;0.40;0.40;;;;;;;26.47;44.57;102459.34;5058295;28;20503;-78
2023/06/23 10:37:13;;;;;;;0.10;0.10;;;;;;;26.47;43.17;102465.63;5061519;28;20033;-78
2023/06/23 10:39:47;;;;;;;0.10;0.10;;;;;;;26.55;43.72;102461.56;5062505;28;20039;-79
2023/06/23 10:42:15;;;;;;;0.10;0.10;;;;;;;26.55;42.38;102467.00;5060144;28;20037;-79
2023/06/23 10:44:42;;;;;;;0.08;0.08;;;;;;;26.64;44.10;102469.13;5053740;28;20044;-79
2023/06/23 10:47:09;;;;;;;0.03;0.03;;;;;;;26.72;44.03;102474.97;5060560;28;20033;-79
2023/06/23 10:49:36;;;;;;;0.10;0.10;;;;;;;26.82;43.20;102477.13;5060566;28;20029;-79
2023/06/23 10:52:03;;;;;;;0.45;0.45;;;;;;;26.96;43.65;102474.41;5050930;28;20111;-80
2023/06/23 10:54:30;;;;;;;0.10;0.10;;;;;;;27.00;40.43;102481.41;5050085;28;20087;-76
2023/06/23 10:56:57;;;;;;;0.10;0.10;;;;;;;27.15;41.55;102481.38;5039820;28;20025;-77
2023/06/23 10:59:27;;;;;;;0.20;0.20;;;;;;;27.18;37.89;102478.47;5042062;28;20041;-78
2023/06/23 11:04:41;;;;;;;0.22;0.22;;;;;;;27.34;41.40;102479.22;5124553;27;20376;-78
2023/06/23 11:07:09;;;;;;;0.00;0.00;;;;;;;27.42;40.34;102487.78;5138704;28;20028;-79
2023/06/23 11:12:40;;;;;;;0.32;0.32;;;;;;;27.62;41.61;102480.13;5068143;28;20414;-79
2023/06/23 11:23:06;;;;;;;0.10;0.10;;;;;;;27.75;38.14;102486.50;5115541;27;1172780;-79
2023/06/23 11:25:37;;;;;;;0.10;0.10;;;;;;;27.76;36.46;102484.66;5131760;27;20122;-79
2023/06/23 11:28:24;;;;;;;0.20;0.20;;;;;;;27.88;37.80;102485.69;5136659;27;20016;-79
2023/06/23 11:31:13;;;;;;;0.10;0.10;;;;;;;27.90;34.97;102480.97;5113943;28;20103;-78
2023/06/23 11:33:42;;;;;;;0.00;0.00;;;;;;;28.02;36.13;102477.41;5113287;28;20083;-78
2023/06/23 11:36:19;;;;;;;0.20;0.20;;;;;;;28.07;36.65;102472.56;5115547;28;20099;-78
2023/06/23 11:38:45;;;;;;;0.08;0.08;;;;;;;28.16;36.32;102467.47;5115576;28;20023;-78
2023/06/23 11:41:15;;;;;;;0.08;0.08;;;;;;;28.25;38.27;102464.06;5119172;28;20024;-79
2023/06/23 11:43:42;;;;;;;0.20;0.20;;;;;;;28.32;37.26;102478.16;5116933;28;20111;-78
2023/06/23 11:48:48;;;;;;;0.10;0.10;;;;;;;28.51;36.72;102475.00;5093352;27;20386;-77
2023/06/23 11:51:15;;;;;;;0.10;0.10;;;;;;;28.57;36.63;102474.56;5080026;28;20115;-77
2023/06/23 11:53:42;;;;;;;0.08;0.08;;;;;;;28.65;37.53;102476.75;5063653;28;20052;-77
2023/06/23 11:56:13;;;;;;;0.82;0.82;;;;;;;28.75;36.78;102472.44;5062791;28;20538;-76
2023/06/23 11:58:39;;;;;;;0.47;0.47;;;;;;;28.79;36.86;102475.81;5068506;28;20078;-77
2023/06/23 12:01:05;;;;;;;0.32;0.20;;;;;;;28.85;36.81;102484.41;5065974;28;20043;-77